createdAt,value
2022-12-20T00:01:50.163Z,18.05
2022-12-20T00:07:12.034Z,18.03
2022-12-20T00:12:33.734Z,18.00
2022-12-20T00:17:55.493Z,17.97
2022-12-20T00:23:17.263Z,17.95
2022-12-20T00:28:40.703Z,17.94
2022-12-20T00:34:02.476Z,17.91
2022-12-20T00:39:24.158Z,17.89
2022-12-20T00:44:45.853Z,17.87
2022-12-20T00:50:07.968Z,17.85
2022-12-20T00:55:29.716Z,17.82
2022-12-20T01:00:56.215Z,17.82
2022-12-20T01:06:19.187Z,17.80
2022-12-20T01:11:40.877Z,17.78
2022-12-20T01:17:02.642Z,17.77
2022-12-20T01:22:24.397Z,17.74
2022-12-20T01:27:46.475Z,17.73
2022-12-20T01:33:08.179Z,17.72
2022-12-20T01:38:30.137Z,17.70
2022-12-20T01:43:54.706Z,17.69
2022-12-20T01:49:24.542Z,17.68
2022-12-20T01:54:49.912Z,17.66
2022-12-20T02:00:12.452Z,17.65
2022-12-20T02:05:42.969Z,17.63
2022-12-20T02:11:38.030Z,17.63
2022-12-20T02:17:18.323Z,17.61
2022-12-20T02:22:42.726Z,17.58
2022-12-20T02:28:17.318Z,17.58
2022-12-20T02:33:43.625Z,17.56
2022-12-20T02:39:05.714Z,17.53
2022-12-20T02:44:49.185Z,17.53
2022-12-20T02:50:11.991Z,17.51
2022-12-20T02:55:54.145Z,17.52
2022-12-20T03:01:28.184Z,17.51
2022-12-20T03:07:07.444Z,17.50
2022-12-20T03:12:29.116Z,17.47
2022-12-20T03:17:50.780Z,17.46
2022-12-20T03:23:12.569Z,17.47
2022-12-20T03:28:34.264Z,17.45
2022-12-20T03:33:56.584Z,17.46
2022-12-20T03:39:18.310Z,17.45
2022-12-20T03:44:40.159Z,17.44
2022-12-20T03:50:01.915Z,17.42
2022-12-20T03:55:24.175Z,17.41
2022-12-20T04:00:45.858Z,17.41
2022-12-20T04:06:07.627Z,17.40
2022-12-20T04:11:29.476Z,17.39
2022-12-20T04:16:51.241Z,17.39
2022-12-20T04:22:12.987Z,17.38
2022-12-20T04:27:34.673Z,17.37
2022-12-20T04:32:56.450Z,17.35
2022-12-20T04:38:19.647Z,17.36
2022-12-20T04:43:41.311Z,17.35
2022-12-20T04:49:03.195Z,17.35
2022-12-20T04:54:27.083Z,17.34
2022-12-20T04:59:48.754Z,17.33
2022-12-20T05:05:10.604Z,17.32
2022-12-20T05:10:32.286Z,17.32
2022-12-20T05:15:55.811Z,17.33
2022-12-20T05:21:36.281Z,17.30
2022-12-20T05:26:58.023Z,17.30
2022-12-20T05:32:19.725Z,17.29
2022-12-20T05:37:41.729Z,17.29
2022-12-20T05:43:03.633Z,17.26
2022-12-20T05:48:25.420Z,17.26
2022-12-20T05:53:47.568Z,17.24
2022-12-20T05:59:09.647Z,17.24
2022-12-20T06:04:32.565Z,17.25
2022-12-20T06:09:54.318Z,17.24
2022-12-20T06:15:16.215Z,17.24
2022-12-20T06:20:38.297Z,17.25
2022-12-20T06:25:59.987Z,17.25
2022-12-20T06:31:21.930Z,17.24
2022-12-20T06:36:43.723Z,17.26
2022-12-20T06:42:05.902Z,17.26
2022-12-20T06:47:27.715Z,17.26
2022-12-20T06:52:49.439Z,17.26
2022-12-20T06:58:11.202Z,17.26
2022-12-20T07:03:33.040Z,17.25
2022-12-20T07:08:55.001Z,17.26
2022-12-20T07:14:16.684Z,17.24
2022-12-20T07:19:38.431Z,17.24
2022-12-20T07:25:00.152Z,17.23
2022-12-20T07:30:21.886Z,17.22
2022-12-20T07:35:49.413Z,17.22
2022-12-20T07:41:17.008Z,17.21
2022-12-20T07:46:38.747Z,17.21
2022-12-20T07:52:02.739Z,17.20
2022-12-20T07:57:31.353Z,17.21
2022-12-20T08:03:06.381Z,17.22
2022-12-20T08:08:28.221Z,17.20
2022-12-20T08:13:57.541Z,17.20
2022-12-20T08:19:19.919Z,17.19
2022-12-20T08:24:41.696Z,17.18
2022-12-20T08:30:04.667Z,17.18
2022-12-20T08:35:26.432Z,17.19
2022-12-20T08:40:48.135Z,17.20
2022-12-20T08:46:12.287Z,17.20
2022-12-20T08:51:34.164Z,17.19
2022-12-20T08:56:56.124Z,17.21
2022-12-20T09:02:18.586Z,17.20
2022-12-20T09:07:40.366Z,17.21
2022-12-20T09:13:02.035Z,17.23
2022-12-20T09:18:23.666Z,17.24
2022-12-20T09:23:45.575Z,17.23
2022-12-20T09:29:07.263Z,17.25
2022-12-20T09:34:28.925Z,17.25
2022-12-20T09:39:51.630Z,17.27
2022-12-20T09:45:29.267Z,17.29
2022-12-20T09:51:21.210Z,17.29
2022-12-20T09:57:08.811Z,17.26
2022-12-20T10:08:15.710Z,17.28
2022-12-20T10:13:55.692Z,17.29
2022-12-20T10:19:53.161Z,17.29
2022-12-20T10:25:23.133Z,17.26
2022-12-20T10:30:44.940Z,17.32
2022-12-20T10:36:24.257Z,17.40
2022-12-20T10:41:52.083Z,17.39
2022-12-20T10:47:33.636Z,17.38
2022-12-20T10:53:10.371Z,17.36
2022-12-20T10:58:35.705Z,17.32
2022-12-20T11:04:03.872Z,17.31
2022-12-20T11:09:32.578Z,17.31
2022-12-20T11:15:19.948Z,17.31
2022-12-20T11:20:53.334Z,17.30
2022-12-20T11:26:42.613Z,17.31
2022-12-20T11:32:28.827Z,17.34
2022-12-20T11:38:08.912Z,17.37
2022-12-20T11:44:24.018Z,17.37
2022-12-20T11:50:09.348Z,17.37
2022-12-20T11:55:36.794Z,17.33
2022-12-20T12:01:04.756Z,17.32
2022-12-20T12:06:31.742Z,17.30
2022-12-20T12:12:07.716Z,17.29
2022-12-20T12:17:43.599Z,17.28
2022-12-20T12:23:24.598Z,17.27
2022-12-20T12:28:53.485Z,17.24
2022-12-20T12:35:01.267Z,17.24
2022-12-20T12:40:52.581Z,17.22
2022-12-20T12:46:20.494Z,17.20
2022-12-20T12:51:51.133Z,17.20
2022-12-20T12:57:17.959Z,17.20
2022-12-20T13:02:50.788Z,17.20
2022-12-20T13:08:17.383Z,17.19
2022-12-20T13:13:39.164Z,17.18
2022-12-20T13:19:11.257Z,17.19
2022-12-20T13:24:37.143Z,17.18
2022-12-20T13:30:22.435Z,17.18
2022-12-20T13:35:54.835Z,17.17
2022-12-20T13:41:45.699Z,17.17
2022-12-20T13:47:28.584Z,17.16
2022-12-20T13:52:51.293Z,17.16
2022-12-20T13:58:17.391Z,17.17
2022-12-20T14:03:48.229Z,17.16
2022-12-20T14:09:32.712Z,17.16
2022-12-20T14:14:55.419Z,17.15
2022-12-20T14:20:24.179Z,17.16
2022-12-20T14:25:53.202Z,17.15
2022-12-20T14:31:34.446Z,17.16
2022-12-20T14:37:35.050Z,17.15
2022-12-20T14:42:57.133Z,17.13
2022-12-20T14:48:18.834Z,17.12
2022-12-20T14:53:40.925Z,17.13
2022-12-20T14:59:15.697Z,17.13
2022-12-20T15:04:37.622Z,17.11
2022-12-20T15:09:59.329Z,17.10
2022-12-20T15:15:29.342Z,17.10
2022-12-20T15:21:05.961Z,17.12
2022-12-20T15:26:28.437Z,17.05
2022-12-20T15:31:52.056Z,17.08
2022-12-20T15:37:18.240Z,17.06
2022-12-20T15:42:43.376Z,17.07
2022-12-20T15:48:05.334Z,17.07
2022-12-20T15:53:32.543Z,17.07
2022-12-20T15:58:54.573Z,17.08
2022-12-20T16:04:19.289Z,17.06
2022-12-20T16:09:40.990Z,17.07
2022-12-20T16:15:02.874Z,17.08
2022-12-20T16:20:24.635Z,17.08
2022-12-20T16:25:46.953Z,17.08
2022-12-20T16:31:17.841Z,17.10
2022-12-20T16:36:39.564Z,17.08
2022-12-20T16:42:01.796Z,17.08
2022-12-20T16:47:23.522Z,17.07
2022-12-20T16:52:46.816Z,17.06
2022-12-20T16:58:08.567Z,17.05
2022-12-20T17:03:30.262Z,17.03
2022-12-20T17:14:27.996Z,17.03
2022-12-20T17:19:49.719Z,17.04
2022-12-20T17:25:19.662Z,17.04
2022-12-20T17:30:41.336Z,17.02
2022-12-20T17:36:03.187Z,17.03
2022-12-20T17:41:31.391Z,17.04
2022-12-20T17:46:54.316Z,17.03
2022-12-20T17:52:16.133Z,17.02
2022-12-20T17:57:37.782Z,17.01
2022-12-20T18:02:59.596Z,17.02
2022-12-20T18:08:21.405Z,17.02
2022-12-20T18:13:45.066Z,17.01
2022-12-20T18:19:08.065Z,17.02
2022-12-20T18:24:29.765Z,17.23
2022-12-20T18:29:54.581Z,17.69
2022-12-20T18:35:16.482Z,18.23
2022-12-20T18:40:38.206Z,18.75
2022-12-20T18:46:07.351Z,19.21
2022-12-20T18:51:39.382Z,19.58
2022-12-20T18:57:01.108Z,19.91
2022-12-20T19:02:22.870Z,20.18
2022-12-20T19:07:44.752Z,20.43
2022-12-20T19:13:06.427Z,20.60
2022-12-20T19:18:28.428Z,20.63
2022-12-20T19:23:52.431Z,20.53
2022-12-20T19:29:14.148Z,20.37
2022-12-20T19:34:35.882Z,20.20
2022-12-20T19:39:57.621Z,20.04
2022-12-20T19:45:19.314Z,19.86
2022-12-20T19:50:40.996Z,19.76
2022-12-20T19:56:03.234Z,19.73
2022-12-20T20:01:27.788Z,19.80
2022-12-20T20:06:49.794Z,19.86
2022-12-20T20:12:11.485Z,19.94
2022-12-20T20:17:33.197Z,20.00
2022-12-20T20:22:55.009Z,20.02
2022-12-20T20:28:17.241Z,20.05
2022-12-20T20:33:39.090Z,20.07
2022-12-20T20:39:00.863Z,20.09
2022-12-20T20:44:22.597Z,20.10
2022-12-20T20:49:44.327Z,20.11
2022-12-20T20:55:07.656Z,20.16
2022-12-20T21:00:31.973Z,20.18
2022-12-20T21:06:32.772Z,20.19
2022-12-20T21:11:37.333Z,20.19
2022-12-20T21:16:59.194Z,20.14
2022-12-20T21:22:20.918Z,20.06
2022-12-20T21:27:42.623Z,19.97
2022-12-20T21:33:04.312Z,19.89
2022-12-20T21:38:26.063Z,19.81
2022-12-20T21:43:47.856Z,19.73
2022-12-20T21:49:09.586Z,19.62
2022-12-20T21:54:31.591Z,19.49
2022-12-20T21:59:53.288Z,19.42
2022-12-20T22:05:15.657Z,19.34
2022-12-20T22:10:37.478Z,19.27
2022-12-20T22:15:59.233Z,19.20
2022-12-20T22:21:24.084Z,19.11
2022-12-20T22:26:45.783Z,19.04
2022-12-20T22:32:07.650Z,18.96
2022-12-20T22:37:29.390Z,18.88
2022-12-20T22:42:51.125Z,18.83
2022-12-20T22:48:12.820Z,18.77
2022-12-20T22:53:35.708Z,18.73
2022-12-20T22:58:57.400Z,18.67
2022-12-20T23:04:19.122Z,18.63
2022-12-20T23:09:40.931Z,18.58
2022-12-20T23:15:21.046Z,18.53
2022-12-20T23:21:01.694Z,18.51
2022-12-20T23:26:23.730Z,18.44
2022-12-20T23:31:45.498Z,18.42
2022-12-20T23:37:07.253Z,18.38
2022-12-20T23:42:29.353Z,18.36
2022-12-20T23:47:51.023Z,18.33
2022-12-20T23:53:12.756Z,18.31
2022-12-20T23:58:35.194Z,18.27
